Time;durP1;ratioP1;P1;durP2;ratioP2;P2;SDS_P1;SDS_P2;PMS_P1;PMS_P2;Temp;Humidity;BMP_temperature;BMP_pressure;BME280_temperature;BME280_humidity;BME280_pressure;Samples;Min_cycle;Max_cycle;Signal;HPM_P1;HPM_P2
2022/07/12 00:01:52;;;;;;;7.35;2.20;;;18.70;99.90;;;;;;5054396;28;20021;-62
2022/07/12 00:04:18;;;;;;;2.50;1.90;;;18.80;99.90;;;;;;5054419;28;20060;-63
2022/07/12 00:06:44;;;;;;;5.47;2.10;;;18.80;99.90;;;;;;5054500;28;20522;-64
2022/07/12 00:09:09;;;;;;;2.63;2.10;;;18.70;99.90;;;;;;5053691;28;20515;-63
2022/07/12 00:11:36;;;;;;;2.20;1.73;;;18.70;99.90;;;;;;5053476;28;20175;-64
2022/07/12 00:14:02;;;;;;;3.33;2.10;;;18.70;99.90;;;;;;5054644;28;20025;-64
2022/07/12 00:16:28;;;;;;;1.92;1.60;;;18.70;99.90;;;;;;5054754;28;20024;-63
2022/07/12 00:18:54;;;;;;;2.50;1.77;;;18.60;99.90;;;;;;5054242;28;20017;-63
2022/07/12 00:21:19;;;;;;;1.95;1.75;;;18.50;99.90;;;;;;5054113;28;20021;-63
2022/07/12 00:23:45;;;;;;;2.53;2.03;;;18.40;99.90;;;;;;5054133;28;20047;-64
2022/07/12 00:26:10;;;;;;;2.20;1.80;;;18.40;99.90;;;;;;5053073;28;20079;-64
2022/07/12 00:28:36;;;;;;;3.50;1.95;;;18.30;99.90;;;;;;5076263;22;20490;-65
2022/07/12 00:31:03;;;;;;;2.10;1.70;;;18.30;99.90;;;;;;5034306;28;20068;-65
2022/07/12 00:33:28;;;;;;;3.20;2.33;;;18.30;99.90;;;;;;5033615;28;20018;-65
2022/07/12 00:35:54;;;;;;;3.75;1.95;;;18.20;99.90;;;;;;5034216;28;20041;-65
2022/07/12 00:38:20;;;;;;;3.13;1.90;;;18.20;99.90;;;;;;5033991;28;20457;-65
2022/07/12 00:40:45;;;;;;;2.35;1.95;;;18.20;99.90;;;;;;5033965;28;20029;-65
2022/07/12 00:43:11;;;;;;;3.20;2.00;;;18.10;99.90;;;;;;5032781;28;20061;-65
2022/07/12 00:45:37;;;;;;;2.45;1.40;;;18.10;99.90;;;;;;5032396;28;20079;-66
2022/07/12 00:48:03;;;;;;;2.90;1.80;;;18.00;99.90;;;;;;5033694;28;20116;-64
2022/07/12 00:50:29;;;;;;;2.60;1.50;;;18.00;99.90;;;;;;5033771;28;20036;-65
2022/07/12 00:52:55;;;;;;;5.53;1.83;;;18.00;99.90;;;;;;5033813;28;20030;-64
2022/07/12 00:55:23;;;;;;;3.72;1.63;;;18.00;99.90;;;;;;5032283;28;20025;-64
2022/07/12 00:57:49;;;;;;;2.30;1.73;;;17.90;99.90;;;;;;5033539;28;20490;-64
2022/07/12 01:00:16;;;;;;;;;;;17.90;99.90;;;;;;5032861;28;20025;-65
2022/07/12 01:02:43;;;;;;;2.60;1.73;;;17.90;99.90;;;;;;5032390;28;19935;-66
2022/07/12 01:05:10;;;;;;;1.85;1.50;;;17.90;99.90;;;;;;5032725;28;20061;-66
2022/07/12 01:07:36;;;;;;;2.50;1.60;;;17.90;99.90;;;;;;5032462;28;20120;-66
2022/07/12 01:10:03;;;;;;;;;;;17.80;99.90;;;;;;5033923;28;20037;-66
2022/07/12 01:12:29;;;;;;;1.83;1.48;;;17.90;99.90;;;;;;5032554;28;19958;-64
2022/07/12 01:14:55;;;;;;;2.75;1.90;;;17.90;99.90;;;;;;5033554;28;20040;-66
2022/07/12 01:17:23;;;;;;;;;;;17.90;99.90;;;;;;5032328;28;20021;-66
2022/07/12 01:19:50;;;;;;;2.78;1.75;;;17.80;99.90;;;;;;5033364;28;19909;-66
2022/07/12 01:22:17;;;;;;;3.63;1.63;;;17.80;99.90;;;;;;5033379;28;20523;-65
2022/07/12 01:24:44;;;;;;;1.80;1.55;;;17.70;99.90;;;;;;5033412;28;20470;-65
2022/07/12 01:27:10;;;;;;;;;;;17.70;99.90;;;;;;5033922;28;20037;-64
2022/07/12 01:29:35;;;;;;;1.50;1.40;;;17.70;99.90;;;;;;5032933;28;19920;-65
2022/07/12 01:34:57;;;;;;;3.83;1.77;;;17.60;99.90;;;;;;5033300;28;20068;-64
2022/07/12 01:37:24;;;;;;;3.22;1.73;;;17.60;99.90;;;;;;5033406;28;20044;-64
2022/07/12 01:39:56;;;;;;;3.63;1.88;;;17.70;99.90;;;;;;5032966;28;20079;-64
2022/07/12 01:42:23;;;;;;;2.53;1.95;;;17.60;99.90;;;;;;5031957;28;20392;-64
2022/07/12 01:44:50;;;;;;;6.22;1.70;;;17.70;99.90;;;;;;5036838;28;20037;-65
2022/07/12 01:47:20;;;;;;;2.30;1.75;;;17.60;99.90;;;;;;5036770;28;20026;-65
2022/07/12 01:49:46;;;;;;;2.65;1.95;;;17.60;99.90;;;;;;5035284;28;20025;-65
2022/07/12 01:52:13;;;;;;;3.53;1.80;;;17.70;99.90;;;;;;5036741;28;20087;-65
2022/07/12 01:54:39;;;;;;;4.13;1.80;;;17.70;99.90;;;;;;5036898;28;20029;-66
2022/07/12 01:57:05;;;;;;;2.53;1.92;;;17.70;99.90;;;;;;5036587;28;20474;-65
2022/07/12 01:59:31;;;;;;;3.55;1.85;;;17.80;99.90;;;;;;5036999;28;20033;-65
2022/07/12 02:01:58;;;;;;;2.25;1.60;;;17.70;99.90;;;;;;5037197;28;20022;-65
2022/07/12 02:04:23;;;;;;;;;;;17.60;99.90;;;;;;5036973;28;20033;-65
2022/07/12 02:06:49;;;;;;;4.95;1.73;;;17.50;99.90;;;;;;5036460;28;19915;-65
2022/07/12 02:09:16;;;;;;;2.00;1.25;;;17.50;99.90;;;;;;5036430;28;20478;-65
2022/07/12 02:11:42;;;;;;;2.22;1.58;;;17.50;99.90;;;;;;5035150;28;20037;-65
2022/07/12 02:14:09;;;;;;;2.92;1.58;;;17.50;99.90;;;;;;5036507;28;20033;-65
2022/07/12 02:16:35;;;;;;;2.60;1.67;;;17.40;99.90;;;;;;5036445;28;20068;-65
2022/07/12 02:19:01;;;;;;;2.53;1.60;;;17.40;99.90;;;;;;5035194;28;20496;-66
2022/07/12 02:21:26;;;;;;;3.20;1.65;;;17.40;99.90;;;;;;5038164;28;20021;-66
2022/07/12 02:23:52;;;;;;;2.47;1.40;;;17.30;99.90;;;;;;5037222;28;20401;-66
2022/07/12 02:26:18;;;;;;;2.22;1.67;;;17.30;99.90;;;;;;5037411;28;20264;-65
2022/07/12 02:28:43;;;;;;;3.92;1.90;;;17.30;99.90;;;;;;5036288;28;20068;-64
2022/07/12 02:31:09;;;;;;;1.95;1.50;;;17.30;99.90;;;;;;5036282;28;20043;-64
2022/07/12 02:33:35;;;;;;;2.00;1.80;;;17.30;99.90;;;;;;5036354;28;20033;-64
2022/07/12 02:36:01;;;;;;;3.03;1.80;;;17.30;99.90;;;;;;5036318;28;20495;-64
2022/07/12 02:38:26;;;;;;;1.77;1.58;;;17.40;99.90;;;;;;5035260;28;20076;-64
2022/07/12 02:40:54;;;;;;;3.38;1.77;;;17.40;99.90;;;;;;5035892;28;20088;-64
2022/07/12 02:43:21;;;;;;;1.98;1.75;;;17.40;99.90;;;;;;5036184;28;20068;-64
2022/07/12 02:45:47;;;;;;;3.58;1.75;;;17.40;99.90;;;;;;5035652;28;20029;-66
2022/07/12 02:48:13;;;;;;;1.58;1.33;;;17.40;99.90;;;;;;5035737;28;20033;-64
2022/07/12 02:50:39;;;;;;;2.10;1.67;;;17.40;99.90;;;;;;5035596;28;20075;-65
2022/07/12 02:53:06;;;;;;;2.55;1.90;;;17.30;99.90;;;;;;5035605;28;20032;-65
2022/07/12 02:55:32;;;;;;;5.20;2.08;;;17.30;99.90;;;;;;5034403;28;20018;-65
2022/07/12 02:57:57;;;;;;;2.38;1.75;;;17.30;99.90;;;;;;5034024;28;20017;-65
2022/07/12 03:00:23;;;;;;;2.07;1.70;;;17.30;99.90;;;;;;5035122;28;20064;-65
2022/07/12 03:02:49;;;;;;;2.72;1.73;;;17.30;99.90;;;;;;5033974;28;20327;-65
2022/07/12 03:05:14;;;;;;;2.40;1.60;;;17.20;99.90;;;;;;5035110;28;20076;-65
2022/07/12 03:07:40;;;;;;;3.42;2.00;;;17.20;99.90;;;;;;5034022;28;20029;-65
2022/07/12 03:10:06;;;;;;;2.45;1.80;;;17.10;99.90;;;;;;5035373;28;20025;-65
2022/07/12 03:12:32;;;;;;;3.38;1.83;;;17.00;99.90;;;;;;5033866;28;20029;-65
2022/07/12 03:14:57;;;;;;;2.78;1.80;;;17.00;99.90;;;;;;5035312;28;20108;-64
2022/07/12 03:17:23;;;;;;;3.95;1.90;;;16.90;99.90;;;;;;5033881;28;20049;-64
2022/07/12 03:19:48;;;;;;;3.05;2.08;;;16.90;99.90;;;;;;5033835;28;20037;-65
2022/07/12 03:22:14;;;;;;;2.37;1.90;;;16.90;99.90;;;;;;5035276;28;20079;-65
2022/07/12 03:24:40;;;;;;;2.50;1.65;;;16.80;99.90;;;;;;5034980;28;20264;-64
2022/07/12 03:27:06;;;;;;;3.15;2.10;;;16.80;99.90;;;;;;5034972;28;20033;-64
2022/07/12 03:29:31;;;;;;;2.35;1.98;;;16.80;99.90;;;;;;5033259;28;20040;-64
2022/07/12 03:31:57;;;;;;;2.05;1.70;;;16.70;99.90;;;;;;5035365;28;20381;-65
2022/07/12 03:34:23;;;;;;;2.65;2.08;;;16.60;99.90;;;;;;5033442;28;20136;-65
2022/07/12 03:36:48;;;;;;;3.25;2.13;;;16.50;99.90;;;;;;5034900;28;20021;-66
2022/07/12 03:39:14;;;;;;;3.85;2.00;;;16.50;99.90;;;;;;5034622;28;20086;-65
2022/07/12 03:41:39;;;;;;;3.57;2.00;;;16.50;99.90;;;;;;5034444;28;20030;-65
2022/07/12 03:44:06;;;;;;;2.00;1.80;;;16.40;99.90;;;;;;5033312;28;20267;-65
2022/07/12 03:46:32;;;;;;;2.60;1.88;;;16.40;99.90;;;;;;5034842;28;20390;-65
2022/07/12 03:48:59;;;;;;;3.90;1.98;;;16.40;99.90;;;;;;5035262;28;20017;-66
2022/07/12 03:51:25;;;;;;;2.58;1.90;;;16.30;99.90;;;;;;5033197;28;20045;-66
2022/07/12 03:53:51;;;;;;;;;;;16.30;99.90;;;;;;5034976;28;20028;-66
2022/07/12 03:59:00;;;;;;;3.03;2.20;;;16.30;99.90;;;;;;5035015;28;20041;-65
2022/07/12 04:01:26;;;;;;;4.47;2.20;;;16.30;99.90;;;;;;5035279;28;20025;-65
2022/07/12 04:03:51;;;;;;;3.07;2.10;;;16.20;99.90;;;;;;5038663;28;20260;-65
2022/07/12 04:06:17;;;;;;;3.30;1.97;;;16.30;99.90;;;;;;5043631;28;20256;-66
2022/07/12 04:08:42;;;;;;;3.50;2.10;;;16.30;99.90;;;;;;5045577;28;20090;-66
2022/07/12 04:11:08;;;;;;;3.67;2.20;;;16.30;99.90;;;;;;5044391;28;20351;-66
2022/07/12 04:13:33;;;;;;;2.50;2.03;;;16.30;99.90;;;;;;5034856;28;20119;-65
2022/07/12 04:16:00;;;;;;;2.15;1.77;;;16.30;99.90;;;;;;5034076;28;20103;-65
2022/07/12 04:18:26;;;;;;;2.70;2.30;;;16.40;99.90;;;;;;5034467;28;20022;-65
2022/07/12 04:20:51;;;;;;;4.45;2.17;;;16.30;99.90;;;;;;5034621;28;20386;-65
2022/07/12 04:23:17;;;;;;;4.23;2.20;;;16.30;99.90;;;;;;5034239;28;20029;-65
2022/07/12 04:25:42;;;;;;;3.87;2.10;;;16.20;99.90;;;;;;5032714;28;20076;-65
2022/07/12 04:28:08;;;;;;;3.43;2.20;;;16.30;99.90;;;;;;5034364;28;20260;-66
2022/07/12 04:30:33;;;;;;;3.07;2.20;;;16.20;99.90;;;;;;5033955;28;20041;-65
2022/07/12 04:32:59;;;;;;;4.70;2.43;;;16.20;99.90;;;;;;5033893;28;20271;-65
2022/07/12 04:35:24;;;;;;;3.27;2.37;;;16.20;99.90;;;;;;5033759;28;20040;-65
2022/07/12 04:37:50;;;;;;;2.40;2.20;;;16.20;99.90;;;;;;5033804;28;20260;-65
2022/07/12 04:40:16;;;;;;;6.47;2.95;;;16.20;99.90;;;;;;5033898;28;20440;-64
2022/07/12 04:42:41;;;;;;;3.28;2.63;;;16.20;99.90;;;;;;5033828;28;20025;-66
2022/07/12 04:45:07;;;;;;;4.22;2.53;;;16.20;99.90;;;;;;5033653;28;20112;-65
2022/07/12 04:47:36;;;;;;;3.53;2.10;;;16.20;99.90;;;;;;5033692;28;20030;-67
2022/07/12 04:50:07;;;;;;;2.80;2.17;;;16.20;99.90;;;;;;5032468;28;20029;-66
2022/07/12 04:52:33;;;;;;;3.15;2.45;;;16.30;99.90;;;;;;5033630;28;20026;-65
2022/07/12 04:54:58;;;;;;;3.22;2.35;;;16.30;99.90;;;;;;5032571;28;20033;-67
2022/07/12 04:57:24;;;;;;;3.05;2.33;;;16.40;99.90;;;;;;5033427;28;20385;-64
2022/07/12 04:59:50;;;;;;;3.85;2.50;;;16.40;99.90;;;;;;5033924;28;20075;-65
2022/07/12 05:02:15;;;;;;;4.70;1.93;;;16.40;99.90;;;;;;5033513;28;20043;-64
2022/07/12 05:04:41;;;;;;;3.23;2.07;;;16.50;99.90;;;;;;5033810;28;20260;-65
2022/07/12 05:07:06;;;;;;;2.53;1.92;;;16.50;99.90;;;;;;5033889;28;20075;-64
2022/07/12 05:09:32;;;;;;;5.35;2.30;;;16.60;99.90;;;;;;5032958;28;20033;-65
2022/07/12 05:11:58;;;;;;;10.53;3.53;;;16.60;99.90;;;;;;5031840;28;20022;-65
2022/07/12 05:14:23;;;;;;;2.63;2.28;;;16.70;99.90;;;;;;5034187;28;20474;-66
2022/07/12 05:16:49;;;;;;;2.60;2.00;;;16.70;99.90;;;;;;5036635;28;20548;-65
2022/07/12 05:19:15;;;;;;;2.67;2.13;;;16.80;99.90;;;;;;5036228;28;20034;-65
2022/07/12 05:21:42;;;;;;;3.35;1.92;;;16.90;99.90;;;;;;5038244;28;20107;-66
2022/07/12 05:24:07;;;;;;;5.72;2.58;;;16.90;99.90;;;;;;5035477;28;20025;-66
2022/07/12 05:26:33;;;;;;;3.53;1.92;;;17.00;99.90;;;;;;5033195;28;20025;-65
2022/07/12 05:28:59;;;;;;;2.13;1.58;;;17.00;99.90;;;;;;5032861;28;20041;-65
2022/07/12 05:31:24;;;;;;;2.10;1.73;;;17.10;99.90;;;;;;5032347;28;20370;-65
2022/07/12 05:33:50;;;;;;;2.47;1.75;;;17.20;99.90;;;;;;5035367;28;20530;-65
2022/07/12 05:36:15;;;;;;;2.58;1.70;;;17.30;99.90;;;;;;5031914;28;20088;-65
2022/07/12 05:38:41;;;;;;;3.25;2.03;;;17.30;99.90;;;;;;5031898;28;20133;-66
2022/07/12 05:41:06;;;;;;;2.40;1.52;;;17.40;99.90;;;;;;5033220;28;20051;-65
2022/07/12 05:43:32;;;;;;;5.40;2.13;;;17.50;99.90;;;;;;5032906;28;20029;-66
2022/07/12 05:45:57;;;;;;;3.78;1.60;;;17.60;99.90;;;;;;5032372;28;20034;-67
2022/07/12 05:48:23;;;;;;;5.53;1.70;;;17.70;99.90;;;;;;5030780;28;20093;-66
2022/07/12 05:50:48;;;;;;;3.33;1.50;;;17.80;99.90;;;;;;5032227;28;20494;-67
2022/07/12 05:53:23;;;;;;;2.53;2.00;;;17.90;99.90;;;;;;5032260;28;20347;-67
2022/07/12 05:55:51;;;;;;;3.90;1.60;;;18.00;99.90;;;;;;5031996;28;20026;-66
2022/07/12 05:58:17;;;;;;;3.38;1.48;;;18.10;99.90;;;;;;5032092;28;20025;-67
2022/07/12 06:00:43;;;;;;;2.65;1.40;;;18.20;99.90;;;;;;5032472;28;20028;-66
2022/07/12 06:03:08;;;;;;;2.83;1.40;;;18.30;99.90;;;;;;5031434;28;20025;-65
2022/07/12 06:05:34;;;;;;;4.00;1.50;;;18.40;99.90;;;;;;5032574;28;20089;-65
2022/07/12 06:08:00;;;;;;;3.63;1.52;;;18.40;99.90;;;;;;5033118;28;20033;-65
2022/07/12 06:10:25;;;;;;;2.47;1.45;;;18.40;99.90;;;;;;5032885;28;20034;-65
2022/07/12 06:12:51;;;;;;;1.90;1.45;;;18.50;99.90;;;;;;5030990;28;20366;-66
2022/07/12 06:15:17;;;;;;;1.75;1.10;;;18.60;99.90;;;;;;5032793;28;20109;-65
2022/07/12 06:17:43;;;;;;;2.33;1.45;;;18.70;99.90;;;;;;5033081;28;20088;-65
2022/07/12 06:20:09;;;;;;;2.28;1.20;;;18.80;99.90;;;;;;5032839;28;20025;-65
2022/07/12 06:22:34;;;;;;;1.73;1.10;;;18.90;99.90;;;;;;5031020;28;20025;-65
2022/07/12 06:25:00;;;;;;;2.88;1.10;;;19.10;99.90;;;;;;5030951;28;20028;-65
2022/07/12 06:27:26;;;;;;;2.67;1.05;;;19.20;99.90;;;;;;5032691;28;20032;-65
2022/07/12 06:29:52;;;;;;;2.10;1.10;;;19.30;99.90;;;;;;5058000;22;20045;-65
2022/07/12 06:32:18;;;;;;;1.20;0.90;;;19.40;99.90;;;;;;5055804;28;20166;-67
2022/07/12 06:34:44;;;;;;;1.67;1.33;;;19.40;99.90;;;;;;5056458;28;20523;-65
2022/07/12 06:37:09;;;;;;;1.77;1.02;;;19.50;99.90;;;;;;5056498;28;20017;-68
2022/07/12 06:39:35;;;;;;;1.48;1.05;;;19.50;99.90;;;;;;5056659;28;20029;-67
2022/07/12 06:42:03;;;;;;;1.50;1.20;;;19.60;99.90;;;;;;5056319;28;20097;-66
2022/07/12 06:44:32;;;;;;;1.45;1.00;;;19.80;99.90;;;;;;5056413;28;20477;-65
2022/07/12 06:46:59;;;;;;;1.65;1.08;;;19.90;99.90;;;;;;5056055;28;20032;-66
2022/07/12 06:49:25;;;;;;;3.60;0.93;;;20.00;99.90;;;;;;5055780;28;20018;-66
2022/07/12 06:51:51;;;;;;;;;;;20.10;99.90;;;;;;5056311;28;20029;-66
2022/07/12 06:54:16;;;;;;;1.05;0.90;;;20.20;99.90;;;;;;5055605;28;19905;-66
2022/07/12 06:56:42;;;;;;;0.88;0.68;;;20.30;99.90;;;;;;5055735;28;20029;-65
2022/07/12 06:59:10;;;;;;;1.80;0.80;;;20.40;99.90;;;;;;5055623;28;20025;-65
2022/07/12 07:01:37;;;;;;;1.58;0.93;;;20.50;99.90;;;;;;5056366;28;20096;-67
2022/07/12 07:04:02;;;;;;;;;;;20.60;99.90;;;;;;5056903;28;20139;-66
2022/07/12 07:06:28;;;;;;;1.10;0.70;;;20.80;99.90;;;;;;5056269;28;19919;-67
2022/07/12 07:08:53;;;;;;;3.60;0.80;;;20.80;99.90;;;;;;5056730;28;20060;-67
2022/07/12 07:11:19;;;;;;;4.50;0.75;;;20.90;99.90;;;;;;5055735;28;20393;-67
2022/07/12 07:13:45;;;;;;;1.98;1.27;;;20.90;99.90;;;;;;5055909;28;20025;-66
2022/07/12 07:16:10;;;;;;;2.05;0.60;;;20.90;99.90;;;;;;5055577;28;20037;-65
2022/07/12 07:18:36;;;;;;;1.95;0.75;;;21.00;99.90;;;;;;5056412;28;20024;-66
2022/07/12 07:21:01;;;;;;;1.80;0.60;;;21.20;99.90;;;;;;5055769;28;20021;-68
2022/07/12 07:23:27;;;;;;;1.65;0.82;;;21.30;99.90;;;;;;5056043;28;20031;-66
2022/07/12 07:25:52;;;;;;;0.90;0.80;;;21.30;99.90;;;;;;5055683;28;20086;-66
2022/07/12 07:28:18;;;;;;;1.52;0.57;;;21.40;99.90;;;;;;5055355;28;20040;-67
2022/07/12 07:30:52;;;;;;;0.90;0.50;;;21.40;99.90;;;;;;5055330;28;20029;-66
2022/07/12 07:33:22;;;;;;;3.30;0.60;;;21.60;99.90;;;;;;5055456;28;20021;-67
2022/07/12 07:35:49;;;;;;;1.52;0.80;;;21.60;99.90;;;;;;5055205;28;20120;-66
2022/07/12 07:38:15;;;;;;;2.15;0.50;;;21.70;99.90;;;;;;5055266;28;20021;-66
2022/07/12 07:40:41;;;;;;;1.00;0.43;;;21.70;99.90;;;;;;5054636;28;20025;-67
2022/07/12 07:43:07;;;;;;;0.65;0.57;;;21.80;99.10;;;;;;5054738;28;20086;-66
2022/07/12 07:45:32;;;;;;;1.92;0.50;;;22.00;99.20;;;;;;5054907;28;20025;-68
2022/07/12 07:47:58;;;;;;;1.85;1.00;;;22.20;99.50;;;;;;5054835;28;20033;-66
2022/07/12 07:50:23;;;;;;;1.77;0.50;;;22.40;98.80;;;;;;5054666;28;20025;-67
2022/07/12 07:52:51;;;;;;;1.48;0.68;;;22.40;98.10;;;;;;5054660;28;20370;-67
2022/07/12 07:55:17;;;;;;;0.90;0.60;;;22.50;98.00;;;;;;5054959;28;20470;-66
2022/07/12 07:57:42;;;;;;;1.83;0.60;;;22.60;98.00;;;;;;5055068;28;20039;-66
2022/07/12 08:00:09;;;;;;;9.25;7.53;;;22.70;97.70;;;;;;5054706;28;20413;-66
2022/07/12 08:02:34;;;;;;;2.45;0.70;;;22.80;97.10;;;;;;5053681;28;20079;-66
2022/07/12 08:05:00;;;;;;;1.00;0.40;;;22.90;96.70;;;;;;5055662;28;20036;-66
2022/07/12 08:07:25;;;;;;;1.15;0.60;;;23.10;96.70;;;;;;5053683;28;20025;-66
2022/07/12 08:09:51;;;;;;;;;;;23.20;96.10;;;;;;5054923;28;20405;-65
2022/07/12 08:12:16;;;;;;;1.35;0.45;;;23.30;96.00;;;;;;5054737;28;20335;-67
2022/07/12 08:14:42;;;;;;;1.25;0.40;;;23.70;95.20;;;;;;5054273;28;20112;-66
2022/07/12 08:17:07;;;;;;;;;;;24.60;94.00;;;;;;5054509;28;20025;-66
2022/07/12 08:19:33;;;;;;;0.50;0.40;;;26.30;91.60;;;;;;5052754;28;19904;-65
2022/07/12 08:21:59;;;;;;;0.35;0.30;;;28.30;87.30;;;;;;5054005;28;20033;-67
2022/07/12 08:24:24;;;;;;;0.40;0.40;;;29.20;81.60;;;;;;5052730;28;20048;-66
2022/07/12 08:26:50;;;;;;;0.30;0.30;;;30.10;78.10;;;;;;5054644;28;20029;-65
2022/07/12 08:29:15;;;;;;;0.30;0.28;;;31.30;74.40;;;;;;5054090;28;20024;-65
2022/07/12 08:31:41;;;;;;;0.52;0.30;;;32.70;71.50;;;;;;5053716;28;20441;-66
2022/07/12 08:34:07;;;;;;;0.63;0.40;;;32.70;69.00;;;;;;5053621;28;20024;-66
2022/07/12 08:36:32;;;;;;;2.03;0.25;;;33.60;66.30;;;;;;5053970;28;20032;-65
2022/07/12 08:38:58;;;;;;;1.88;0.47;;;33.40;65.30;;;;;;5053848;28;20131;-66
2022/07/12 08:41:24;;;;;;;0.60;0.30;;;34.40;65.20;;;;;;5053334;28;20334;-65
2022/07/12 08:43:49;;;;;;;0.43;0.38;;;34.60;63.00;;;;;;5053545;28;20381;-65
2022/07/12 08:46:15;;;;;;;0.30;0.30;;;34.80;61.90;;;;;;5052062;28;20489;-66
2022/07/12 08:48:42;;;;;;;2.67;0.55;;;35.90;60.20;;;;;;5053626;28;20096;-65
2022/07/12 08:51:13;;;;;;;0.40;0.40;;;35.10;59.50;;;;;;5053196;28;20124;-65
2022/07/12 08:53:39;;;;;;;1.50;0.47;;;33.90;60.80;;;;;;5052740;28;20065;-66
2022/07/12 08:56:05;;;;;;;0.88;0.47;;;34.00;60.20;;;;;;5053317;28;20056;-66
2022/07/12 08:58:31;;;;;;;1.10;0.80;;;34.10;60.20;;;;;;5052966;28;20442;-65
2022/07/12 09:00:57;;;;;;;0.63;0.50;;;34.10;60.10;;;;;;5053371;28;20025;-65
2022/07/12 09:03:22;;;;;;;1.10;0.50;;;35.30;59.20;;;;;;5053388;28;20362;-66
2022/07/12 09:05:53;;;;;;;0.30;0.30;;;35.20;58.20;;;;;;5053538;28;20032;-66
2022/07/12 09:08:25;;;;;;;0.52;0.50;;;33.30;59.80;;;;;;5052007;28;20121;-67
2022/07/12 09:10:54;;;;;;;0.60;0.40;;;34.10;60.00;;;;;;5053538;28;20025;-65
2022/07/12 09:13:20;;;;;;;0.50;0.50;;;35.60;58.30;;;;;;5053220;28;20032;-67
2022/07/12 09:15:50;;;;;;;1.08;0.63;;;36.10;56.90;;;;;;5053369;28;20469;-65
2022/07/12 09:18:17;;;;;;;0.40;0.40;;;36.70;56.60;;;;;;5053400;28;20051;-65
2022/07/12 09:20:51;;;;;;;0.80;0.50;;;36.00;56.10;;;;;;5053441;28;20454;-66
2022/07/12 09:23:17;;;;;;;0.45;0.40;;;35.80;56.70;;;;;;5053674;28;20082;-67
2022/07/12 09:25:47;;;;;;;0.45;0.45;;;35.00;56.90;;;;;;5053133;28;20095;-66
2022/07/12 09:28:13;;;;;;;0.50;0.50;;;34.20;58.40;;;;;;5051893;28;20060;-66
2022/07/12 09:30:52;;;;;;;0.93;0.40;;;32.80;59.30;;;;;;5052731;28;20064;-66
2022/07/12 09:36:09;;;;;;;1.27;0.40;;;33.30;59.20;;;;;;5053685;28;20079;-65
2022/07/12 09:39:01;;;;;;;0.65;0.50;;;33.80;59.50;;;;;;5053343;28;20259;-66
2022/07/12 09:41:27;;;;;;;0.80;0.45;;;34.70;57.40;;;;;;5052918;28;20100;-66
2022/07/12 09:43:53;;;;;;;0.85;0.45;;;35.20;57.10;;;;;;5052790;28;20079;-65
2022/07/12 09:46:19;;;;;;;0.60;0.30;;;34.70;57.40;;;;;;5053307;28;20033;-65
2022/07/12 09:48:46;;;;;;;1.02;0.40;;;34.60;57.60;;;;;;5053250;28;20359;-67
2022/07/12 09:51:15;;;;;;;1.15;0.50;;;33.60;58.60;;;;;;5052788;28;20036;-65
2022/07/12 09:53:45;;;;;;;0.55;0.45;;;33.50;58.80;;;;;;5053208;28;20036;-65
2022/07/12 09:56:13;;;;;;;0.65;0.60;;;33.50;58.70;;;;;;5052906;28;20029;-65
2022/07/12 09:58:47;;;;;;;0.73;0.50;;;34.80;58.00;;;;;;5051373;28;20052;-65
2022/07/12 10:01:16;;;;;;;0.55;0.43;;;35.60;56.80;;;;;;5053166;28;20036;-67
2022/07/12 10:03:43;;;;;;;1.50;0.50;;;35.90;56.20;;;;;;5051688;28;20116;-65
2022/07/12 10:06:10;;;;;;;0.50;0.50;;;35.10;56.90;;;;;;5056790;28;20020;-66
2022/07/12 10:08:35;;;;;;;0.52;0.52;;;35.50;56.50;;;;;;5056758;28;20028;-66
2022/07/12 10:11:01;;;;;;;1.92;0.70;;;36.10;55.20;;;;;;5056640;28;20370;-65
2022/07/12 10:13:27;;;;;;;2.20;0.50;;;36.30;55.10;;;;;;5056657;28;20028;-65
2022/07/12 10:16:00;;;;;;;0.40;0.40;;;36.20;55.30;;;;;;5056451;28;20021;-67
2022/07/12 10:18:26;;;;;;;0.60;0.50;;;34.20;56.90;;;;;;5055445;28;20025;-66
2022/07/12 10:20:52;;;;;;;0.40;0.30;;;33.20;57.90;;;;;;5056264;28;20481;-66
2022/07/12 10:23:30;;;;;;;1.20;0.40;;;33.60;58.00;;;;;;5056256;28;20032;-65
2022/07/12 10:25:56;;;;;;;0.50;0.50;;;34.10;56.80;;;;;;5054846;28;20482;-65
2022/07/12 10:28:22;;;;;;;2.13;0.80;;;36.10;55.60;;;;;;5056442;28;20074;-65
2022/07/12 10:30:49;;;;;;;1.40;0.50;;;36.00;54.70;;;;;;5055889;28;20044;-66
2022/07/12 10:33:20;;;;;;;0.40;0.40;;;35.10;55.50;;;;;;5056145;28;20057;-65
2022/07/12 10:36:00;;;;;;;0.63;0.40;;;34.50;55.70;;;;;;5055955;28;20025;-66
2022/07/12 10:38:26;;;;;;;0.52;0.50;;;35.20;55.70;;;;;;5054883;28;20103;-65
2022/07/12 10:40:53;;;;;;;1.25;0.47;;;35.30;56.00;;;;;;5056038;28;20017;-66
2022/07/12 10:46:21;;;;;;;0.50;0.40;;;35.60;55.50;;;;;;5056458;28;20389;-67
2022/07/12 10:48:47;;;;;;;0.82;0.50;;;36.30;54.90;;;;;;5054337;28;20021;-65
2022/07/12 10:51:19;;;;;;;1.48;0.40;;;35.90;55.20;;;;;;5056032;28;20028;-66
2022/07/12 10:53:48;;;;;;;1.77;0.50;;;35.60;55.80;;;;;;5055727;28;20032;-65
2022/07/12 10:56:22;;;;;;;0.85;0.60;;;36.70;54.60;;;;;;5055692;28;20418;-65
2022/07/12 10:58:56;;;;;;;0.80;0.43;;;37.30;53.60;;;;;;5055765;28;20462;-65
2022/07/12 11:01:29;;;;;;;1.15;0.73;;;37.10;53.60;;;;;;5055701;28;20504;-67
2022/07/12 11:04:03;;;;;;;0.30;0.30;;;37.50;53.30;;;;;;5055821;28;20037;-66
2022/07/12 11:06:29;;;;;;;0.60;0.45;;;38.20;52.30;;;;;;5054565;28;20078;-66
2022/07/12 11:08:57;;;;;;;0.85;0.52;;;35.80;52.80;;;;;;5055802;28;20072;-66
2022/07/12 11:11:29;;;;;;;0.50;0.50;;;35.10;54.60;;;;;;5055807;28;20416;-66
2022/07/12 11:13:56;;;;;;;0.50;0.50;;;34.50;54.80;;;;;;5055480;28;20029;-67
2022/07/12 11:16:23;;;;;;;0.52;0.52;;;33.20;56.10;;;;;;5054963;28;20104;-66
2022/07/12 11:18:49;;;;;;;1.02;0.32;;;31.60;57.70;;;;;;5054975;28;20152;-66
2022/07/12 11:21:14;;;;;;;0.40;0.40;;;30.40;59.50;;;;;;5058243;28;20112;-65
2022/07/12 11:23:40;;;;;;;1.80;0.47;;;29.90;59.80;;;;;;5055881;28;20078;-66
2022/07/12 11:26:07;;;;;;;0.30;0.30;;;29.80;59.90;;;;;;5055130;28;20066;-67
2022/07/12 11:28:33;;;;;;;0.82;0.30;;;29.30;60.40;;;;;;5054912;28;20033;-66
2022/07/12 11:31:07;;;;;;;1.23;0.40;;;29.30;61.20;;;;;;5053738;28;20048;-67
2022/07/12 11:33:35;;;;;;;0.30;0.30;;;29.20;61.40;;;;;;5053992;28;20384;-67
2022/07/12 11:36:04;;;;;;;0.30;0.30;;;29.20;61.60;;;;;;5053487;28;20033;-66
2022/07/12 11:38:30;;;;;;;1.83;0.60;;;28.90;62.30;;;;;;5053672;28;20390;-66
2022/07/12 11:41:00;;;;;;;1.15;0.55;;;28.60;63.20;;;;;;5054977;28;20028;-66
2022/07/12 11:43:26;;;;;;;0.50;0.40;;;28.10;64.00;;;;;;5056075;28;20032;-68
2022/07/12 11:45:54;;;;;;;1.40;0.50;;;27.50;64.40;;;;;;5057426;28;20029;-69
2022/07/12 11:48:20;;;;;;;2.72;0.70;;;27.20;64.90;;;;;;5056155;28;20029;-68
2022/07/12 11:50:47;;;;;;;0.35;0.35;;;26.90;66.30;;;;;;5053446;28;20120;-69
2022/07/12 11:53:21;;;;;;;1.40;0.32;;;27.00;66.30;;;;;;5053715;28;20035;-68
2022/07/12 11:55:49;;;;;;;0.38;0.38;;;27.10;66.10;;;;;;5055699;28;20025;-71
2022/07/12 11:58:16;;;;;;;0.47;0.40;;;26.90;66.60;;;;;;5053350;28;20029;-64
2022/07/12 12:00:42;;;;;;;0.40;0.38;;;26.90;66.20;;;;;;5055041;28;20021;-64
2022/07/12 12:03:08;;;;;;;0.68;0.40;;;26.60;66.90;;;;;;5054881;28;20039;-63
2022/07/12 12:05:34;;;;;;;;;;;26.40;67.70;;;;;;5054930;28;20070;-64
2022/07/12 12:08:01;;;;;;;0.38;0.30;;;26.50;67.80;;;;;;5054277;28;19991;-64
2022/07/12 12:10:27;;;;;;;1.58;0.63;;;26.70;67.50;;;;;;5054098;28;20033;-64
2022/07/12 12:12:57;;;;;;;0.88;0.40;;;26.80;67.50;;;;;;5052911;28;20029;-64
2022/07/12 12:15:33;;;;;;;1.45;0.50;;;26.90;67.10;;;;;;5060080;28;20025;-69
2022/07/12 12:18:04;;;;;;;0.32;0.32;;;26.90;67.70;;;;;;5055195;28;20423;-69
2022/07/12 12:20:31;;;;;;;0.70;0.40;;;27.00;66.90;;;;;;5054802;28;20056;-66
2022/07/12 12:22:58;;;;;;;0.40;0.40;;;27.10;66.60;;;;;;5055516;28;20025;-65
2022/07/12 12:25:25;;;;;;;3.13;0.60;;;26.90;66.30;;;;;;5055947;28;20033;-68
2022/07/12 12:28:00;;;;;;;0.45;0.40;;;26.90;66.80;;;;;;5055351;28;20029;-68
2022/07/12 12:30:26;;;;;;;0.65;0.40;;;26.80;67.20;;;;;;5083056;22;20509;-67
2022/07/12 12:33:00;;;;;;;1.35;0.40;;;26.90;67.50;;;;;;5055810;28;20504;-69
2022/07/12 12:35:38;;;;;;;0.40;0.40;;;26.90;66.90;;;;;;5055277;28;20036;-68
2022/07/12 12:38:12;;;;;;;0.98;0.40;;;27.10;66.90;;;;;;5055204;28;20096;-70
2022/07/12 12:40:38;;;;;;;0.85;0.43;;;27.10;66.70;;;;;;5053912;28;20040;-69
2022/07/12 12:43:09;;;;;;;0.45;0.30;;;27.00;66.40;;;;;;5053487;28;20013;-69
2022/07/12 12:45:35;;;;;;;0.30;0.30;;;27.10;66.30;;;;;;5053612;28;20039;-69
2022/07/12 12:48:04;;;;;;;1.08;0.50;;;27.10;66.10;;;;;;5054437;28;20147;-70
2022/07/12 12:50:37;;;;;;;1.00;0.30;;;27.20;66.20;;;;;;5053976;28;20481;-69
2022/07/12 12:53:18;;;;;;;1.50;0.20;;;27.20;65.40;;;;;;5052587;28;20098;-69
2022/07/12 12:55:45;;;;;;;0.43;0.40;;;27.20;65.00;;;;;;5053651;28;20477;-69
2022/07/12 12:58:13;;;;;;;1.52;0.50;;;27.30;65.50;;;;;;5053560;28;20049;-69
2022/07/12 13:00:41;;;;;;;0.63;0.52;;;27.40;65.30;;;;;;5052983;28;20074;-69